Time;durP1;ratioP1;P1;durP2;ratioP2;P2;SDS_P1;SDS_P2;PMS_P1;PMS_P2;Temp;Humidity;BMP_temperature;BMP_pressure;BME280_temperature;BME280_humidity;BME280_pressure;Samples;Min_cycle;Max_cycle;Signal;HPM_P1;HPM_P2
2022/09/29 00:01:22;;;;;;;6.03;4.60;;;;;;;10.17;64.82;99751.09;4866110;28;96938;-51
2022/09/29 00:03:48;;;;;;;6.97;4.17;;;;;;;10.15;64.95;99761.84;4860513;28;97298;-50
2022/09/29 00:06:16;;;;;;;4.30;3.43;;;;;;;10.12;64.76;99760.13;4867793;28;98697;-50
2022/09/29 00:08:42;;;;;;;3.70;3.07;;;;;;;10.10;65.01;99748.88;4853909;28;97490;-50
2022/09/29 00:11:09;;;;;;;8.23;3.70;;;;;;;10.09;64.86;99754.88;4875644;28;97354;-53
2022/09/29 00:13:34;;;;;;;5.43;4.43;;;;;;;10.09;64.77;99758.34;4869772;28;98664;-50
2022/09/29 00:16:01;;;;;;;7.60;4.00;;;;;;;10.09;64.82;99757.63;4861185;28;97556;-51
2022/09/29 00:18:28;;;;;;;3.97;3.57;;;;;;;10.09;64.83;99761.09;4866995;28;96922;-51
2022/09/29 00:21:05;;;;;;;5.00;3.50;;;;;;;10.06;64.92;99767.63;4873610;28;96948;-51
2022/09/29 00:23:33;;;;;;;5.30;3.00;;;;;;;10.04;64.93;99748.16;4877902;28;100582;-51
2022/09/29 00:26:00;;;;;;;3.33;2.70;;;;;;;10.03;64.99;99748.66;4868939;28;98236;-51
2022/09/29 00:28:25;;;;;;;3.13;2.70;;;;;;;10.02;64.95;99750.69;4860715;28;97225;-50
2022/09/29 00:30:51;;;;;;;3.17;2.83;;;;;;;10.01;65.09;99754.66;4876445;28;97569;-50
2022/09/29 00:33:16;;;;;;;3.17;2.90;;;;;;;9.99;65.03;99754.44;4858734;28;118657;-50
2022/09/29 00:35:41;;;;;;;3.23;2.93;;;;;;;9.97;64.96;99754.19;4867185;28;108818;-50
2022/09/29 00:38:07;;;;;;;4.60;3.23;;;;;;;9.95;64.95;99759.47;4871627;28;115244;-51
2022/09/29 00:40:33;;;;;;;3.53;3.23;;;;;;;9.90;64.83;99762.22;4860825;28;105448;-50
2022/09/29 00:42:59;;;;;;;2.87;2.67;;;;;;;9.87;64.93;99750.28;4862835;28;97107;-51
2022/09/29 00:45:25;;;;;;;11.53;3.47;;;;;;;9.83;64.96;99756.03;4869613;28;100535;-51
2022/09/29 00:48:01;;;;;;;3.47;3.17;;;;;;;9.79;64.91;99752.81;4863080;28;96828;-51
2022/09/29 00:50:44;;;;;;;4.20;3.00;;;;;;;9.75;65.03;99751.59;4864417;28;97007;-51
2022/09/29 00:53:11;;;;;;;3.00;2.80;;;;;;;9.72;64.84;99752.59;4865890;28;97114;-50
2022/09/29 00:56:02;;;;;;;5.20;3.40;;;;;;;9.65;64.64;99747.66;4867488;28;96875;-51
2022/09/29 00:58:41;;;;;;;4.97;3.20;;;;;;;9.59;64.81;99755.16;4864352;28;97814;-51
2022/09/29 01:01:07;;;;;;;3.60;3.30;;;;;;;9.57;64.78;99750.19;4852468;28;97295;-50
2022/09/29 01:03:37;;;;;;;6.63;3.53;;;;;;;9.55;64.83;99749.94;4869841;28;97316;-51
2022/09/29 01:06:11;;;;;;;3.87;3.43;;;;;;;9.53;64.63;99757.19;4871403;28;102841;-50
2022/09/29 01:08:45;;;;;;;3.00;2.80;;;;;;;9.47;64.75;99759.22;4858373;28;97007;-51
2022/09/29 01:11:11;;;;;;;3.70;3.20;;;;;;;9.44;64.71;99754.72;4868690;28;97232;-51
2022/09/29 01:13:37;;;;;;;7.90;3.47;;;;;;;9.41;64.73;99747.53;4860895;28;97410;-51
2022/09/29 01:16:03;;;;;;;9.13;4.63;;;;;;;9.37;64.74;99752.53;4877317;28;96656;-50
2022/09/29 01:18:30;;;;;;;3.50;3.20;;;;;;;9.35;64.60;99753.03;4876191;28;96656;-51
2022/09/29 01:21:20;;;;;;;2.97;2.67;;;;;;;9.34;64.58;99757.03;4864134;28;97179;-50
2022/09/29 01:24:08;;;;;;;5.43;2.57;;;;;;;9.25;64.35;99753.81;4849547;28;100470;-51
2022/09/29 01:27:01;;;;;;;3.70;3.33;;;;;;;9.21;64.52;99753.31;4866867;28;101184;-51
2022/09/29 01:29:38;;;;;;;3.47;3.00;;;;;;;9.16;64.61;99757.59;4864498;28;97182;-51
2022/09/29 01:32:03;;;;;;;7.30;3.13;;;;;;;9.12;64.70;99754.34;4850555;28;97283;-50
2022/09/29 01:34:47;;;;;;;4.50;3.27;;;;;;;9.12;64.51;99761.84;4868456;28;96629;-51
2022/09/29 01:37:36;;;;;;;3.60;3.30;;;;;;;9.02;64.46;99759.38;4857299;28;98459;-51
2022/09/29 01:40:08;;;;;;;4.00;3.37;;;;;;;8.94;64.73;99758.41;4864820;28;97325;-51
2022/09/29 01:42:46;;;;;;;2.97;2.70;;;;;;;8.94;64.40;99758.41;4863604;28;97501;-50
2022/09/29 01:45:17;;;;;;;3.47;3.17;;;;;;;8.90;64.50;99760.66;4868781;28;101856;-51
2022/09/29 01:47:48;;;;;;;3.80;3.37;;;;;;;8.87;64.68;99758.91;4870433;28;100447;-52
2022/09/29 01:50:19;;;;;;;5.53;3.70;;;;;;;8.86;64.75;99765.66;4870503;28;96677;-50
2022/09/29 01:52:50;;;;;;;3.30;3.00;;;;;;;8.84;64.58;99756.44;4859083;28;96878;-50
2022/09/29 01:55:22;;;;;;;3.90;3.30;;;;;;;8.82;64.58;99756.19;4862066;28;97536;-51
2022/09/29 01:58:01;;;;;;;3.53;3.23;;;;;;;8.80;64.51;99759.41;4856142;28;97204;-50
2022/09/29 02:00:30;;;;;;;3.30;3.00;;;;;;;8.79;64.58;99762.66;4871850;28;97483;-50
2022/09/29 02:03:19;;;;;;;5.97;3.37;;;;;;;8.74;64.18;99758.69;4858515;28;97077;-50
2022/09/29 02:05:52;;;;;;;3.33;2.70;;;;;;;8.72;64.42;99761.19;4867575;28;102050;-50
2022/09/29 02:08:36;;;;;;;7.47;3.50;;;;;;;8.68;64.37;99768.91;4875088;28;100463;-51
2022/09/29 02:11:04;;;;;;;3.30;3.10;;;;;;;8.63;64.35;99766.91;4851079;28;97089;-51
2022/09/29 02:13:39;;;;;;;5.53;3.27;;;;;;;8.62;64.16;99770.91;4866168;28;96893;-51
2022/09/29 02:16:10;;;;;;;3.77;3.47;;;;;;;8.59;64.22;99771.91;4851099;28;96961;-51
2022/09/29 02:18:50;;;;;;;6.57;3.30;;;;;;;8.50;64.29;99769.41;4865516;28;98367;-51
2022/09/29 02:21:15;;;;;;;3.20;3.00;;;;;;;8.51;64.03;99772.91;4846758;28;96834;-51
2022/09/29 02:23:40;;;;;;;6.93;3.10;;;;;;;8.45;64.16;99767.44;4863981;28;97389;-51
2022/09/29 02:26:06;;;;;;;5.80;2.63;;;;;;;8.40;64.03;99773.66;4863927;28;98552;-51
2022/09/29 02:28:31;;;;;;;3.53;3.23;;;;;;;8.33;64.15;99771.41;4866453;28;106663;-51
2022/09/29 02:30:57;;;;;;;9.17;3.23;;;;;;;8.26;64.24;99772.66;4869900;28;96984;-52
2022/09/29 02:33:24;;;;;;;5.13;2.70;;;;;;;8.23;64.14;99775.63;4866103;28;97166;-50
2022/09/29 02:35:56;;;;;;;2.73;2.53;;;;;;;8.22;64.40;99774.13;4844417;28;97320;-51
2022/09/29 02:38:43;;;;;;;3.33;2.53;;;;;;;8.19;63.82;99773.13;4860052;28;97204;-51
2022/09/29 02:41:43;;;;;;;6.60;2.50;;;;;;;8.19;63.88;99767.63;4869624;28;98493;-50
2022/09/29 02:44:15;;;;;;;2.53;2.33;;;;;;;8.15;64.06;99772.63;4862201;28;97088;-51
2022/09/29 02:47:13;;;;;;;3.57;2.30;;;;;;;8.09;64.00;99777.34;4866777;28;96766;-51
2022/09/29 02:50:16;;;;;;;4.37;2.40;;;;;;;8.05;63.98;99774.09;4873471;28;102029;-51
2022/09/29 02:52:50;;;;;;;8.90;2.87;;;;;;;8.00;64.07;99765.88;4874857;28;97254;-51
2022/09/29 02:55:37;;;;;;;5.40;2.63;;;;;;;7.93;63.86;99769.84;4855956;28;96934;-50
2022/09/29 02:58:12;;;;;;;2.67;2.30;;;;;;;7.89;64.38;99774.06;4868603;28;101963;-50
2022/09/29 03:00:39;;;;;;;5.00;2.77;;;;;;;7.85;64.42;99777.06;4866376;28;97082;-51
2022/09/29 03:03:04;;;;;;;5.70;2.63;;;;;;;7.86;64.27;99780.53;4872587;28;96916;-51
2022/09/29 03:05:30;;;;;;;2.47;2.27;;;;;;;7.84;64.52;99778.28;4853901;28;96840;-51
2022/09/29 03:07:55;;;;;;;3.03;2.70;;;;;;;7.83;64.27;99778.78;4867985;28;96924;-51
2022/09/29 03:10:20;;;;;;;6.00;2.60;;;;;;;7.83;64.07;99787.75;4869417;28;111807;-51
2022/09/29 03:12:46;;;;;;;2.47;2.27;;;;;;;7.81;64.13;99786.75;4853545;28;96814;-51
2022/09/29 03:15:12;;;;;;;2.93;2.73;;;;;;;7.76;63.94;99784.72;4865974;28;97941;-50
2022/09/29 03:17:38;;;;;;;2.40;2.20;;;;;;;7.70;64.17;99787.47;4872343;28;99484;-50
2022/09/29 03:20:04;;;;;;;2.73;2.40;;;;;;;7.68;64.11;99787.22;4850519;28;97498;-50
2022/09/29 03:22:29;;;;;;;2.87;2.60;;;;;;;7.65;64.15;99781.97;4869757;28;96943;-50
2022/09/29 03:24:55;;;;;;;4.10;2.77;;;;;;;7.66;64.57;99791.69;4869374;28;97264;-51
2022/09/29 03:27:20;;;;;;;4.73;2.97;;;;;;;7.67;64.33;99784.94;4850521;28;97671;-51
2022/09/29 03:29:45;;;;;;;2.93;2.40;;;;;;;7.66;64.22;99780.72;4873695;28;97295;-50
2022/09/29 03:32:11;;;;;;;2.43;2.30;;;;;;;7.66;64.17;99780.72;4858794;28;99093;-51
2022/09/29 03:34:36;;;;;;;3.43;3.13;;;;;;;7.64;64.15;99780.47;4869840;28;106917;-51
2022/09/29 03:37:02;;;;;;;3.23;2.60;;;;;;;7.64;64.12;99786.72;4866894;28;97249;-50
2022/09/29 03:39:27;;;;;;;2.63;2.43;;;;;;;7.64;64.12;99783.22;4858831;28;97410;-51
2022/09/29 03:41:53;;;;;;;7.20;2.40;;;;;;;7.57;64.00;99789.91;4868038;28;96761;-51
2022/09/29 03:44:18;;;;;;;2.97;2.77;;;;;;;7.56;64.39;99793.88;4867288;28;97431;-50
2022/09/29 03:46:45;;;;;;;2.73;2.53;;;;;;;7.53;64.20;99786.66;4850017;28;97223;-51
2022/09/29 03:49:10;;;;;;;2.70;2.50;;;;;;;7.54;64.30;99791.63;4870522;28;97373;-51
2022/09/29 03:51:37;;;;;;;2.97;2.33;;;;;;;7.54;64.22;99797.09;4865478;28;97365;-50
2022/09/29 03:54:02;;;;;;;5.50;3.00;;;;;;;7.54;64.16;99797.09;4864713;28;97348;-51
2022/09/29 03:56:28;;;;;;;6.20;3.67;;;;;;;7.53;64.16;99803.81;4873076;28;98577;-51
2022/09/29 03:58:53;;;;;;;3.17;2.77;;;;;;;7.51;64.37;99800.09;4856411;28;97866;-53
2022/09/29 04:01:19;;;;;;;2.40;2.30;;;;;;;7.51;64.35;99802.81;4871241;28;97001;-51
2022/09/29 04:03:44;;;;;;;3.40;2.97;;;;;;;7.48;64.35;99807.28;4866131;28;97402;-50
2022/09/29 04:06:09;;;;;;;2.37;2.17;;;;;;;7.44;64.24;99809.50;4852980;28;97328;-51
2022/09/29 04:08:36;;;;;;;6.83;2.60;;;;;;;7.43;64.03;99808.00;4872910;28;98442;-51
2022/09/29 04:11:01;;;;;;;2.93;2.70;;;;;;;7.41;64.08;99815.19;4876759;28;97363;-50
2022/09/29 04:13:27;;;;;;;4.00;2.80;;;;;;;7.38;64.02;99816.19;4859752;28;97044;-51
2022/09/29 04:15:57;;;;;;;3.10;2.77;;;;;;;7.36;64.31;99824.88;4873519;28;105612;-50
2022/09/29 04:18:23;;;;;;;2.80;2.60;;;;;;;7.38;64.22;99814.19;4881325;28;98542;-51
2022/09/29 04:20:48;;;;;;;2.63;2.47;;;;;;;7.37;63.97;99820.16;4861284;28;97421;-51
2022/09/29 04:23:14;;;;;;;3.27;2.77;;;;;;;7.32;63.85;99824.38;4870253;28;96893;-51
2022/09/29 04:25:39;;;;;;;5.57;2.83;;;;;;;7.30;64.06;99831.56;4855469;28;96987;-51
2022/09/29 04:28:05;;;;;;;3.50;3.20;;;;;;;7.26;64.15;99820.09;4863457;28;97399;-50
2022/09/29 04:30:30;;;;;;;3.13;2.83;;;;;;;7.26;63.98;99831.81;4870302;28;97221;-51
2022/09/29 04:32:55;;;;;;;3.90;3.07;;;;;;;7.22;63.90;99825.06;4853858;28;96811;-51
2022/09/29 04:35:21;;;;;;;2.97;2.77;;;;;;;7.21;63.85;99827.03;4868893;28;97310;-51
2022/09/29 04:37:46;;;;;;;3.73;3.10;;;;;;;7.18;64.16;99822.56;4867230;28;97080;-51
2022/09/29 04:40:11;;;;;;;4.43;2.97;;;;;;;7.14;64.15;99824.75;4861972;28;113895;-51
2022/09/29 04:42:37;;;;;;;3.40;3.10;;;;;;;7.14;63.79;99829.50;4869870;28;97008;-51
2022/09/29 04:45:02;;;;;;;3.77;2.90;;;;;;;7.13;64.20;99831.47;4866295;28;109364;-50
2022/09/29 04:47:27;;;;;;;6.60;2.87;;;;;;;7.11;64.07;99825.00;4859795;28;97250;-51
2022/09/29 04:49:53;;;;;;;4.93;2.93;;;;;;;7.12;64.21;99840.91;4856538;28;107932;-51
2022/09/29 04:52:18;;;;;;;3.27;2.97;;;;;;;7.11;64.01;99838.66;4865640;28;113327;-51
2022/09/29 04:54:43;;;;;;;4.60;3.10;;;;;;;7.12;64.17;99840.91;4853965;28;98492;-51
2022/09/29 04:57:09;;;;;;;4.00;2.83;;;;;;;7.13;64.07;99845.16;4869679;28;97249;-51
2022/09/29 04:59:34;;;;;;;4.13;2.70;;;;;;;7.11;64.04;99839.41;4858135;28;97639;-50
2022/09/29 05:02:00;;;;;;;2.80;2.60;;;;;;;7.11;64.25;99849.59;4861319;28;97453;-50
2022/09/29 05:04:25;;;;;;;2.93;2.70;;;;;;;7.08;64.10;99850.56;4867538;28;97191;-51
2022/09/29 05:06:51;;;;;;;2.33;2.13;;;;;;;7.06;64.26;99856.53;4850424;28;97041;-51
2022/09/29 05:09:16;;;;;;;2.50;2.40;;;;;;;7.05;64.16;99857.78;4867695;28;97373;-52
2022/09/29 05:11:41;;;;;;;3.40;2.93;;;;;;;7.06;63.95;99856.53;4862284;28;98091;-51
2022/09/29 05:14:07;;;;;;;3.53;2.77;;;;;;;7.05;64.48;99854.28;4865453;28;98183;-51
2022/09/29 05:16:32;;;;;;;2.57;2.37;;;;;;;7.06;64.08;99859.28;4873482;28;117765;-51
2022/09/29 05:18:58;;;;;;;2.97;2.67;;;;;;;7.07;64.08;99857.28;4866154;28;102693;-51
2022/09/29 05:21:23;;;;;;;5.30;2.97;;;;;;;7.09;63.91;99852.84;4859615;28;97046;-51
2022/09/29 05:23:49;;;;;;;5.33;3.30;;;;;;;7.10;64.00;99857.06;4860617;28;97916;-51
2022/09/29 05:26:15;;;;;;;3.57;3.00;;;;;;;7.08;64.15;99854.06;4869081;28;97223;-52
2022/09/29 05:28:45;;;;;;;7.90;3.27;;;;;;;7.09;63.91;99857.56;4855475;28;96709;-51
2022/09/29 05:31:12;;;;;;;2.90;2.60;;;;;;;7.08;64.20;99864.25;4864068;28;96834;-51
2022/09/29 05:33:38;;;;;;;3.57;3.13;;;;;;;7.08;63.98;99869.72;4851177;28;97378;-51
2022/09/29 05:36:08;;;;;;;4.03;3.10;;;;;;;7.06;63.93;99875.69;4863598;28;97714;-51
2022/09/29 05:38:35;;;;;;;3.80;3.50;;;;;;;7.08;64.11;99865.00;4867860;28;97636;-51
2022/09/29 05:41:05;;;;;;;3.67;3.30;;;;;;;7.09;64.33;99866.50;4861283;28;97562;-51
2022/09/29 05:43:30;;;;;;;3.13;2.83;;;;;;;7.11;64.08;99852.34;4868492;28;96838;-52
2022/09/29 05:46:00;;;;;;;3.07;2.77;;;;;;;7.14;64.28;99862.31;4855191;28;97324;-51
2022/09/29 05:48:28;;;;;;;3.13;2.80;;;;;;;7.15;64.04;99863.81;4866486;28;96903;-51
2022/09/29 05:50:53;;;;;;;3.13;2.70;;;;;;;7.15;63.89;99867.28;4869984;28;96884;-51
2022/09/29 05:53:18;;;;;;;4.03;2.30;;;;;;;7.15;64.08;99864.56;4856279;28;118250;-51
2022/09/29 05:55:44;;;;;;;3.87;2.67;;;;;;;7.16;64.43;99866.06;4874020;28;96752;-50
2022/09/29 05:58:09;;;;;;;4.53;3.27;;;;;;;7.17;64.38;99867.53;4854363;28;104570;-51
2022/09/29 06:00:35;;;;;;;4.93;3.30;;;;;;;7.18;64.35;99868.31;4869979;28;97505;-51
2022/09/29 06:03:01;;;;;;;3.60;3.00;;;;;;;7.18;64.17;99860.09;4870668;28;97476;-51
2022/09/29 06:05:27;;;;;;;6.77;4.07;;;;;;;7.19;64.58;99873.28;4851457;28;97375;-51
2022/09/29 06:07:53;;;;;;;3.97;3.43;;;;;;;7.23;64.58;99870.34;4863952;28;97257;-51
2022/09/29 06:10:19;;;;;;;5.53;3.03;;;;;;;7.25;64.18;99882.25;4864571;28;97068;-51
2022/09/29 06:12:44;;;;;;;5.03;3.10;;;;;;;7.28;64.55;99866.88;4858748;28;97512;-51
2022/09/29 06:15:10;;;;;;;5.83;3.67;;;;;;;7.31;64.31;99868.63;4871280;28;96860;-51
2022/09/29 06:17:36;;;;;;;6.43;3.63;;;;;;;7.33;64.75;99875.13;4867580;28;96860;-50
2022/09/29 06:20:01;;;;;;;4.10;3.70;;;;;;;7.36;64.55;99876.84;4848238;28;97076;-51
2022/09/29 06:22:27;;;;;;;5.70;3.43;;;;;;;7.35;64.40;99880.84;4864084;28;97556;-51
2022/09/29 06:24:53;;;;;;;3.00;2.80;;;;;;;7.32;64.60;99875.59;4861929;28;97325;-50
2022/09/29 06:27:19;;;;;;;4.20;3.80;;;;;;;7.33;64.47;99879.84;4865339;28;97822;-52
2022/09/29 06:29:44;;;;;;;4.63;4.00;;;;;;;7.33;64.66;99875.13;4872370;28;96817;-50
2022/09/29 06:32:09;;;;;;;3.50;3.20;;;;;;;7.36;64.38;99881.59;4861918;28;102436;-51
2022/09/29 06:37:33;;;;;;;6.53;4.47;;;;;;;7.40;64.39;99885.59;4872773;28;97207;-51
2022/09/29 06:37:35;;;;;;;4.07;3.00;;;;;;;7.44;64.72;99880.66;4851871;28;97482;-51
2022/09/29 06:40:07;;;;;;;9.73;3.77;;;;;;;7.48;64.88;99883.91;4870737;28;96991;-51
2022/09/29 06:42:32;;;;;;;5.67;3.67;;;;;;;7.51;64.79;99893.13;4852725;28;97382;-51
2022/09/29 06:44:57;;;;;;;3.77;3.23;;;;;;;7.55;64.63;99885.44;4867880;28;97265;-52
2022/09/29 06:47:23;;;;;;;4.17;3.50;;;;;;;7.57;64.78;99889.19;4874391;28;97914;-51
2022/09/29 06:49:49;;;;;;;5.83;3.33;;;;;;;7.62;64.61;99895.19;4854485;28;97481;-50
2022/09/29 06:52:15;;;;;;;3.80;2.77;;;;;;;7.67;64.39;99891.69;4870313;28;96891;-51
2022/09/29 06:54:41;;;;;;;6.90;3.00;;;;;;;7.72;64.50;99896.47;4867449;28;97254;-52
2022/09/29 06:57:06;;;;;;;4.40;3.17;;;;;;;7.75;64.71;99893.50;4863332;28;97417;-51
2022/09/29 06:59:31;;;;;;;3.73;3.40;;;;;;;7.77;64.63;99901.22;4864743;28;97457;-51
2022/09/29 07:01:57;;;;;;;3.17;2.93;;;;;;;7.80;64.37;99895.50;4853954;28;101329;-51
2022/09/29 07:04:22;;;;;;;3.33;2.77;;;;;;;7.84;64.65;99906.25;4874053;28;97469;-51
2022/09/29 07:06:48;;;;;;;2.80;2.60;;;;;;;7.87;64.48;99906.00;4869418;28;97068;-51
2022/09/29 07:09:16;;;;;;;4.10;3.60;;;;;;;7.92;64.43;99907.25;4858859;28;97004;-51
2022/09/29 07:11:45;;;;;;;5.03;3.07;;;;;;;7.96;64.67;99914.00;4873242;28;97535;-51
2022/09/29 07:14:11;;;;;;;3.20;2.90;;;;;;;7.99;64.54;99901.31;4876564;28;96727;-51
2022/09/29 07:16:36;;;;;;;3.17;2.90;;;;;;;8.05;64.90;99904.81;4863740;28;97211;-51
2022/09/29 07:19:01;;;;;;;7.77;3.00;;;;;;;8.11;64.86;99909.09;4870664;28;113472;-50
2022/09/29 07:21:27;;;;;;;3.93;3.40;;;;;;;8.17;64.78;99909.84;4862504;28;97845;-51
2022/09/29 07:23:52;;;;;;;3.60;3.30;;;;;;;8.23;64.73;99907.13;4874687;28;115702;-51
2022/09/29 07:26:17;;;;;;;3.63;2.90;;;;;;;8.29;64.84;99913.41;4868889;28;97741;-50
2022/09/29 07:28:44;;;;;;;3.33;3.10;;;;;;;8.35;64.64;99911.41;4852034;28;96944;-51
2022/09/29 07:31:12;;;;;;;4.00;3.03;;;;;;;8.43;64.93;99906.94;4867890;28;97431;-51
2022/09/29 07:33:37;;;;;;;5.63;3.70;;;;;;;8.48;64.95;99914.44;4867837;28;97206;-51
2022/09/29 07:36:03;;;;;;;4.57;3.43;;;;;;;8.57;65.08;99910.72;4853878;28;96963;-51
2022/09/29 07:38:29;;;;;;;5.20;4.40;;;;;;;8.64;64.94;99913.72;4867867;28;96918;-51
2022/09/29 07:41:00;;;;;;;3.73;3.20;;;;;;;8.74;65.17;99919.69;4867126;28;98592;-52
2022/09/29 07:43:25;;;;;;;4.60;3.70;;;;;;;8.80;65.04;99918.47;4866766;28;101723;-51
2022/09/29 07:45:51;;;;;;;4.67;4.17;;;;;;;8.87;65.23;99917.97;4866720;28;97336;-51
2022/09/29 07:48:17;;;;;;;5.73;4.03;;;;;;;8.95;65.09;99927.19;4854003;28;99261;-51
2022/09/29 07:50:43;;;;;;;6.83;4.37;;;;;;;9.04;65.19;99918.72;4863769;28;97309;-50
2022/09/29 07:53:09;;;;;;;5.60;4.17;;;;;;;9.14;65.23;99918.47;4863248;28;97668;-51
2022/09/29 07:55:35;;;;;;;6.20;4.90;;;;;;;9.22;65.19;99922.22;4843665;28;96831;-50
2022/09/29 07:58:01;;;;;;;5.87;5.00;;;;;;;9.33;65.22;99924.94;4871076;28;98342;-50
2022/09/29 08:00:29;;;;;;;5.50;4.90;;;;;;;9.41;65.25;99926.69;4867164;28;97470;-51
2022/09/29 08:02:58;;;;;;;7.93;6.10;;;;;;;9.51;65.51;99930.66;4866076;28;97443;-51
2022/09/29 08:05:26;;;;;;;9.80;7.20;;;;;;;9.65;65.46;99928.91;4872943;28;97002;-50
2022/09/29 08:07:51;;;;;;;13.93;9.07;;;;;;;9.83;65.88;99933.81;4850879;28;97721;-50
2022/09/29 08:10:17;;;;;;;16.90;10.27;;;;;;;10.01;65.96;99925.03;4863851;28;97429;-51
2022/09/29 08:12:42;;;;;;;16.50;9.73;;;;;;;10.20;65.92;99933.47;4868272;28;99282;-50
2022/09/29 08:15:08;;;;;;;15.87;9.40;;;;;;;10.34;66.07;99933.16;4851815;28;102332;-50
2022/09/29 08:17:33;;;;;;;15.53;9.93;;;;;;;10.48;66.04;99945.09;4875172;28;96946;-50
2022/09/29 08:19:58;;;;;;;23.60;11.33;;;;;;;10.65;66.04;99942.22;4876256;28;101427;-50
2022/09/29 08:22:24;;;;;;;17.93;11.37;;;;;;;10.82;66.10;99945.63;4854012;28;97035;-50
2022/09/29 08:24:49;;;;;;;17.17;11.00;;;;;;;10.97;66.09;99943.25;4863278;28;97518;-50
2022/09/29 08:27:15;;;;;;;16.33;10.07;;;;;;;11.10;66.08;99955.16;4857753;28;113386;-50
2022/09/29 08:29:41;;;;;;;15.90;11.07;;;;;;;11.26;66.22;99953.53;4864978;28;97764;-50
2022/09/29 08:32:06;;;;;;;20.70;11.57;;;;;;;11.38;65.87;99965.94;4870653;28;97174;-50
2022/09/29 08:34:31;;;;;;;16.90;11.77;;;;;;;11.49;65.87;99962.34;4859012;28;113763;-50
2022/09/29 08:36:56;;;;;;;20.07;12.17;;;;;;;11.63;66.11;99963.97;4873290;28;106249;-52
2022/09/29 08:39:22;;;;;;;18.57;11.37;;;;;;;11.76;65.87;99967.63;4863198;28;117806;-50
2022/09/29 08:42:13;;;;;;;18.43;13.03;;;;;;;11.87;66.26;99977.78;4863729;28;119974;-50
2022/09/29 08:44:43;;;;;;;16.57;10.97;;;;;;;11.95;65.91;99978.69;4863812;28;97416;-49
2022/09/29 08:47:24;;;;;;;18.60;12.10;;;;;;;12.06;66.35;99988.88;4861886;28;97378;-50
2022/09/29 08:50:02;;;;;;;17.27;10.97;;;;;;;12.13;66.13;99991.00;4864122;28;101925;-51
2022/09/29 08:52:32;;;;;;;18.40;11.27;;;;;;;12.22;66.05;99990.66;4872819;28;100178;-50
2022/09/29 08:55:07;;;;;;;15.83;11.03;;;;;;;12.36;66.18;99990.22;4865384;28;97475;-51
2022/09/29 08:57:35;;;;;;;17.00;11.07;;;;;;;12.46;66.09;99993.38;4870481;28;97885;-50
2022/09/29 09:00:01;;;;;;;16.90;12.07;;;;;;;12.51;66.23;99989.81;4866740;28;97224;-50
2022/09/29 09:02:49;;;;;;;16.17;11.40;;;;;;;12.58;66.34;99994.75;4848525;28;97161;-51
2022/09/29 09:05:34;;;;;;;17.93;10.70;;;;;;;12.71;66.43;100000.34;4861220;28;97353;-49
2022/09/29 09:08:14;;;;;;;16.80;11.00;;;;;;;12.82;66.23;99997.41;4871089;28;97254;-50
2022/09/29 09:10:57;;;;;;;15.70;9.93;;;;;;;12.95;65.97;99993.97;4847754;28;97250;-50
2022/09/29 09:13:36;;;;;;;17.50;10.97;;;;;;;13.10;66.00;99994.28;4871444;28;101719;-50
2022/09/29 09:16:27;;;;;;;15.73;10.83;;;;;;;13.20;65.63;100004.41;4873009;28;98980;-50
2022/09/29 09:19:08;;;;;;;14.87;10.50;;;;;;;13.35;65.94;99999.13;4863692;28;96862;-50
2022/09/29 09:21:43;;;;;;;14.30;10.67;;;;;;;13.49;65.66;99997.91;4861932;28;103138;-50
2022/09/29 09:24:16;;;;;;;17.60;10.90;;;;;;;13.62;65.67;100001.97;4870912;28;101886;-50
2022/09/29 09:26:44;;;;;;;19.43;9.83;;;;;;;13.71;65.53;99996.03;4865046;28;97028;-50
2022/09/29 09:29:18;;;;;;;20.27;10.80;;;;;;;13.77;65.55;99997.41;4858362;28;96798;-50
2022/09/29 09:31:54;;;;;;;19.97;11.40;;;;;;;13.84;65.52;99998.81;4872600;28;97452;-50
2022/09/29 09:34:30;;;;;;;14.43;10.80;;;;;;;13.87;65.47;100003.28;4855105;28;97565;-50
2022/09/29 09:37:02;;;;;;;15.30;10.80;;;;;;;13.89;65.19;100000.72;4869473;28;99349;-50
2022/09/29 09:39:36;;;;;;;14.40;11.00;;;;;;;13.93;65.25;99998.41;4857037;28;99119;-50
2022/09/29 09:42:11;;;;;;;16.27;10.10;;;;;;;13.99;65.32;100004.56;4868672;28;97086;-50
2022/09/29 09:44:43;;;;;;;15.20;11.00;;;;;;;14.04;65.33;100004.44;4852427;28;97350;-50
2022/09/29 09:47:22;;;;;;;15.47;11.20;;;;;;;14.06;64.98;100001.16;4865794;28;97223;-50
2022/09/29 09:49:54;;;;;;;15.57;10.90;;;;;;;14.08;65.08;99996.59;4848123;28;97374;-51
2022/09/29 09:52:25;;;;;;;15.17;11.80;;;;;;;14.14;64.98;100002.75;4870025;28;97628;-50
2022/09/29 09:54:55;;;;;;;15.23;10.53;;;;;;;14.20;64.99;100008.91;4861442;28;97733;-50
2022/09/29 09:58:17;;;;;;;14.27;10.00;;;;;;;14.32;64.73;100003.94;4882498;28;98069;-50
2022/09/29 10:00:57;;;;;;;13.47;9.20;;;;;;;14.47;64.74;100014.44;4910984;28;98056;-50
2022/09/29 10:03:23;;;;;;;12.97;9.83;;;;;;;14.51;64.62;100012.84;4908559;28;102528;-51
2022/09/29 10:05:49;;;;;;;15.40;10.80;;;;;;;14.54;64.55;100009.03;4882135;28;96786;-50
2022/09/29 10:08:24;;;;;;;13.17;9.03;;;;;;;14.65;64.60;100014.34;4858567;28;97355;-50
2022/09/29 10:10:50;;;;;;;16.27;10.07;;;;;;;14.67;64.50;100022.09;4870640;28;96943;-50
2022/09/29 10:13:16;;;;;;;12.07;10.00;;;;;;;14.69;64.57;100019.53;4859811;28;96943;-50
2022/09/29 10:15:55;;;;;;;17.23;10.20;;;;;;;14.73;64.46;100015.16;4873125;28;97687;-50
2022/09/29 10:18:37;;;;;;;11.00;8.90;;;;;;;14.76;64.46;100019.63;4861173;28;97571;-50
2022/09/29 10:21:03;;;;;;;13.83;8.47;;;;;;;14.81;64.55;100012.47;4876861;28;96870;-50
2022/09/29 10:23:31;;;;;;;11.43;8.40;;;;;;;14.89;64.54;100016.81;4861036;28;97852;-50
2022/09/29 10:26:11;;;;;;;8.80;7.20;;;;;;;14.96;64.45;100010.59;4870123;28;97069;-51
2022/09/29 10:28:51;;;;;;;10.20;7.33;;;;;;;15.06;64.23;100007.38;4860687;28;96942;-50
2022/09/29 10:31:19;;;;;;;9.33;7.73;;;;;;;15.17;64.50;100007.13;4872316;28;97469;-51
2022/09/29 10:33:51;;;;;;;6.97;6.10;;;;;;;15.26;64.10;100006.66;4853724;28;97203;-50
2022/09/29 10:36:19;;;;;;;7.60;6.00;;;;;;;15.36;64.10;100007.66;4876543;28;98307;-50
2022/09/29 10:38:50;;;;;;;6.87;6.17;;;;;;;15.37;63.60;100004.38;4866934;28;97072;-50
2022/09/29 10:41:18;;;;;;;7.70;5.83;;;;;;;15.34;63.52;99999.91;4879122;28;97679;-50
2022/09/29 10:43:45;;;;;;;6.03;5.40;;;;;;;15.33;63.62;100003.94;4871863;28;97141;-50
2022/09/29 10:46:35;;;;;;;5.50;4.97;;;;;;;15.33;62.99;100009.47;4863195;28;97332;-52
2022/09/29 10:49:15;;;;;;;6.90;5.40;;;;;;;15.41;63.38;100009.56;4869372;28;96945;-50
2022/09/29 10:51:53;;;;;;;5.57;4.97;;;;;;;15.61;63.80;100011.63;4875141;28;97524;-50
2022/09/29 10:54:24;;;;;;;5.23;4.70;;;;;;;15.79;63.62;100012.69;4868613;28;101294;-51
2022/09/29 10:56:50;;;;;;;5.60;5.10;;;;;;;15.96;63.37;100015.75;4871867;28;97428;-50
2022/09/29 10:59:17;;;;;;;4.97;4.57;;;;;;;16.12;63.09;100009.03;4874711;28;97107;-50
2022/09/29 11:01:48;;;;;;;5.70;4.47;;;;;;;16.36;62.89;100005.81;4867568;28;96982;-51
2022/09/29 11:04:25;;;;;;;4.70;4.20;;;;;;;16.51;61.99;100011.47;4869016;28;97170;-50
2022/09/29 11:06:51;;;;;;;3.90;3.50;;;;;;;16.65;62.32;100018.38;4857571;28;97313;-51
2022/09/29 11:09:19;;;;;;;3.97;3.67;;;;;;;16.71;62.12;100015.44;4870442;28;96854;-50
2022/09/29 11:11:47;;;;;;;4.00;3.70;;;;;;;16.79;62.03;100018.97;4859941;28;97248;-50
2022/09/29 11:14:30;;;;;;;3.23;2.93;;;;;;;16.78;60.24;100011.94;4870316;28;97477;-51
2022/09/29 11:16:59;;;;;;;3.70;3.40;;;;;;;16.88;61.91;100018.47;4857514;28;102175;-51
2022/09/29 11:19:25;;;;;;;4.00;3.10;;;;;;;17.00;61.54;100023.13;4866427;28;96775;-50
2022/09/29 11:21:50;;;;;;;4.30;2.90;;;;;;;17.10;61.21;100015.72;4873576;28;97024;-50
2022/09/29 11:24:41;;;;;;;3.63;3.43;;;;;;;17.27;61.09;100023.56;4853241;28;97332;-50
2022/09/29 11:27:34;;;;;;;5.07;3.00;;;;;;;17.40;58.90;100026.16;4867848;28;100200;-50
2022/09/29 11:30:05;;;;;;;2.40;2.30;;;;;;;17.44;60.49;100026.53;4874335;28;96797;-49
2022/09/29 11:32:49;;;;;;;3.03;2.83;;;;;;;17.48;59.09;100029.69;4862545;28;97061;-50
2022/09/29 11:35:32;;;;;;;3.23;3.03;;;;;;;17.53;59.36;100028.03;4868062;28;100578;-50
2022/09/29 11:38:29;;;;;;;4.47;3.20;;;;;;;17.49;58.79;100033.97;4860916;28;102810;-51
2022/09/29 11:41:22;;;;;;;2.70;2.30;;;;;;;17.60;59.32;100025.28;4864288;28;97673;-50
2022/09/29 11:43:54;;;;;;;2.03;1.93;;;;;;;17.89;60.03;100025.81;4848543;28;97222;-50
2022/09/29 11:46:23;;;;;;;3.10;2.50;;;;;;;18.18;59.59;100023.53;4873408;28;97637;-51
2022/09/29 11:49:03;;;;;;;2.20;2.10;;;;;;;18.26;56.82;100029.84;4854036;28;97034;-50